createdAt,value
2018-07-19T00:01:46.041Z,47.69
2018-07-19T00:04:13.707Z,47.35
2018-07-19T00:06:41.362Z,48.87
2018-07-19T00:09:09.820Z,48.69
2018-07-19T00:11:37.573Z,49.06
2018-07-19T00:14:05.276Z,48.58
2018-07-19T00:16:32.933Z,48.44
2018-07-19T00:19:00.659Z,48.79
2018-07-19T00:21:28.231Z,48.25
2018-07-19T00:23:55.893Z,49.02
2018-07-19T00:26:23.584Z,49.14
2018-07-19T00:28:51.267Z,49.81
2018-07-19T00:31:19.019Z,49.92
2018-07-19T00:33:46.678Z,49.86
2018-07-19T00:36:14.339Z,49.66
2018-07-19T00:38:41.994Z,48.91
2018-07-19T00:41:09.652Z,48.65
2018-07-19T00:43:37.608Z,48.36
2018-07-19T00:46:05.228Z,48.75
2018-07-19T00:48:32.809Z,48.76
2018-07-19T00:51:00.469Z,49.56
2018-07-19T00:53:28.122Z,48.98
2018-07-19T00:55:55.813Z,49.11
2018-07-19T00:58:23.494Z,49.33
2018-07-19T01:00:51.117Z,48.84
2018-07-19T01:03:18.738Z,49.51
2018-07-19T01:05:46.426Z,49.42
2018-07-19T01:08:14.046Z,49.03
2018-07-19T01:10:41.750Z,49.29
2018-07-19T01:13:09.427Z,48.30
2018-07-19T01:15:37.094Z,49.12
2018-07-19T01:18:05.213Z,49.72
2018-07-19T01:20:32.853Z,49.26
2018-07-19T01:23:00.535Z,49.37
2018-07-19T01:25:28.256Z,50.14
2018-07-19T01:27:55.892Z,49.84
2018-07-19T01:30:23.533Z,49.69
2018-07-19T01:32:51.263Z,48.90
2018-07-19T01:35:18.957Z,49.64
2018-07-19T01:37:46.655Z,49.79
2018-07-19T01:40:14.321Z,49.47
2018-07-19T01:42:43.238Z,50.22
2018-07-19T01:45:11.570Z,49.96
2018-07-19T01:47:39.472Z,49.55
2018-07-19T01:50:08.264Z,50.40
2018-07-19T01:52:35.985Z,50.88
2018-07-19T01:55:04.078Z,50.83
2018-07-19T01:57:31.773Z,51.12
2018-07-19T01:59:59.503Z,51.46
2018-07-19T02:02:27.275Z,51.27
2018-07-19T02:04:55.012Z,51.75
2018-07-19T02:07:22.704Z,51.67
2018-07-19T02:09:50.382Z,51.19
2018-07-19T02:12:18.073Z,51.83
2018-07-19T02:14:45.736Z,52.46
2018-07-19T02:17:13.376Z,52.92
2018-07-19T02:19:41.069Z,52.54
2018-07-19T02:22:08.728Z,53.46
2018-07-19T02:24:36.390Z,53.21
2018-07-19T02:27:04.100Z,52.71
2018-07-19T02:29:31.672Z,53.32
2018-07-19T02:31:59.274Z,53.85
2018-07-19T02:34:26.963Z,53.37
2018-07-19T02:37:00.536Z,53.06
2018-07-19T02:39:28.206Z,52.68
2018-07-19T02:41:55.939Z,53.33
2018-07-19T02:44:23.542Z,53.69
2018-07-19T02:46:51.188Z,54.33
2018-07-19T02:49:18.913Z,54.35
2018-07-19T02:51:46.579Z,54.56
2018-07-19T02:54:14.218Z,54.77
2018-07-19T02:56:41.874Z,54.54
2018-07-19T02:59:09.598Z,54.46
2018-07-19T03:01:37.300Z,54.87
2018-07-19T03:04:04.952Z,54.18
2018-07-19T03:06:32.636Z,54.22
2018-07-19T03:09:00.278Z,53.77
2018-07-19T03:11:27.929Z,54.94
2018-07-19T03:13:55.547Z,54.77
2018-07-19T03:16:23.287Z,54.31
2018-07-19T03:18:50.935Z,54.33
2018-07-19T03:21:18.588Z,55.36
2018-07-19T03:23:46.261Z,54.66
2018-07-19T03:26:14.060Z,54.30
2018-07-19T03:28:41.755Z,54.63
2018-07-19T03:31:09.703Z,54.61
2018-07-19T03:33:37.286Z,54.78
2018-07-19T03:36:05.059Z,55.40
2018-07-19T03:38:32.742Z,55.28
2018-07-19T03:41:00.403Z,54.67
2018-07-19T03:43:28.058Z,55.08
2018-07-19T03:45:55.710Z,54.78
2018-07-19T03:48:23.446Z,54.74
2018-07-19T03:50:51.161Z,55.24
2018-07-19T03:53:18.858Z,54.59
2018-07-19T03:55:46.557Z,55.13
2018-07-19T03:58:14.352Z,55.02
2018-07-19T04:00:42.031Z,55.66
2018-07-19T04:03:09.651Z,55.21
2018-07-19T04:05:37.328Z,54.65
2018-07-19T04:08:05.200Z,54.50
2018-07-19T04:10:32.882Z,54.62
2018-07-19T04:13:01.705Z,54.78
2018-07-19T04:15:29.323Z,56.26
2018-07-19T04:17:57.788Z,56.10
2018-07-19T04:20:26.517Z,55.45
2018-07-19T04:22:54.921Z,55.54
2018-07-19T04:25:23.071Z,54.36
2018-07-19T04:27:51.001Z,54.25
2018-07-19T04:30:18.673Z,54.90
2018-07-19T04:32:46.371Z,55.24
2018-07-19T04:35:13.959Z,55.27
2018-07-19T04:37:41.620Z,55.51
2018-07-19T04:40:09.337Z,54.77
2018-07-19T04:42:37.201Z,53.91
2018-07-19T04:45:05.392Z,54.28
2018-07-19T04:47:33.052Z,53.88
2018-07-19T04:50:00.642Z,54.04
2018-07-19T04:52:28.302Z,54.16
2018-07-19T04:54:56.297Z,53.41
2018-07-19T04:57:24.032Z,53.45
2018-07-19T04:59:51.742Z,53.89
2018-07-19T05:02:19.750Z,53.33
2018-07-19T05:04:47.358Z,52.69
2018-07-19T05:07:15.000Z,52.68
2018-07-19T05:09:42.917Z,51.61
2018-07-19T05:12:10.594Z,52.13
2018-07-19T05:14:38.288Z,52.13
2018-07-19T05:17:05.956Z,52.01
2018-07-19T05:19:33.567Z,51.33
2018-07-19T05:22:01.226Z,51.38
2018-07-19T05:24:28.909Z,50.73
2018-07-19T05:26:56.493Z,52.11
2018-07-19T05:29:24.187Z,51.24
2018-07-19T05:31:51.838Z,51.84
2018-07-19T05:34:26.188Z,50.88
2018-07-19T05:36:53.867Z,50.58
2018-07-19T05:39:21.480Z,49.90
2018-07-19T05:41:49.165Z,50.35
2018-07-19T05:44:16.790Z,50.39
2018-07-19T05:46:44.520Z,49.12
2018-07-19T05:49:12.201Z,49.14
2018-07-19T05:51:39.824Z,49.77
2018-07-19T05:54:07.494Z,49.81
2018-07-19T05:56:35.149Z,49.39
2018-07-19T05:59:02.811Z,49.04
2018-07-19T06:01:30.450Z,49.29
2018-07-19T06:03:58.118Z,50.00
2018-07-19T06:06:25.758Z,49.98
2018-07-19T06:08:53.413Z,50.38
2018-07-19T06:11:21.101Z,49.62
2018-07-19T06:13:48.759Z,49.82
2018-07-19T06:16:16.473Z,48.11
2018-07-19T06:18:44.229Z,47.89
2018-07-19T06:21:11.909Z,48.90
2018-07-19T06:23:39.599Z,50.54
2018-07-19T06:26:07.244Z,52.39
2018-07-19T06:28:35.045Z,51.26
2018-07-19T06:31:02.877Z,48.87
2018-07-19T06:33:30.637Z,50.99
2018-07-19T06:35:58.728Z,51.09
2018-07-19T06:38:26.429Z,50.30
2018-07-19T06:40:54.148Z,50.12
2018-07-19T06:43:21.942Z,49.85
2018-07-19T06:45:49.610Z,49.18
2018-07-19T06:48:17.290Z,48.27
2018-07-19T06:50:44.992Z,48.42
2018-07-19T06:53:12.674Z,46.64
2018-07-19T06:55:40.368Z,49.28
2018-07-19T06:58:08.022Z,48.29
2018-07-19T07:00:35.693Z,48.87
2018-07-19T07:03:03.354Z,50.08
2018-07-19T07:05:31.078Z,48.62
2018-07-19T07:07:58.753Z,49.39
2018-07-19T07:10:26.377Z,49.05
2018-07-19T07:12:54.143Z,48.18
2018-07-19T07:15:21.767Z,47.82
2018-07-19T07:17:49.435Z,46.27
2018-07-19T07:20:17.143Z,48.10
2018-07-19T07:22:44.833Z,48.47
2018-07-19T07:25:12.568Z,47.68
2018-07-19T07:27:40.339Z,47.13
2018-07-19T07:30:08.050Z,46.78
2018-07-19T07:32:35.792Z,46.54
2018-07-19T07:35:04.407Z,47.09
2018-07-19T07:37:32.094Z,45.99
2018-07-19T07:39:59.778Z,45.16
2018-07-19T07:42:27.544Z,43.90
2018-07-19T07:44:55.366Z,45.30
2018-07-19T07:47:23.383Z,44.86
2018-07-19T07:49:51.055Z,46.94
2018-07-19T07:52:18.761Z,45.69
2018-07-19T07:54:46.478Z,46.20
2018-07-19T07:57:14.194Z,48.75
2018-07-19T07:59:41.881Z,47.82
2018-07-19T08:02:10.014Z,47.86
2018-07-19T08:04:38.550Z,47.93
2018-07-19T08:07:06.225Z,48.44
2018-07-19T08:09:33.984Z,47.41
2018-07-19T08:12:02.000Z,48.12
2018-07-19T08:14:29.742Z,49.21
2018-07-19T08:16:57.606Z,49.64
2018-07-19T08:19:25.266Z,48.83
2018-07-19T08:21:52.956Z,49.08
2018-07-19T08:24:20.772Z,48.30
2018-07-19T08:26:48.550Z,47.57
2018-07-19T08:29:16.295Z,46.31
2018-07-19T08:31:44.197Z,46.85
2018-07-19T08:34:11.975Z,47.95
2018-07-19T08:36:39.920Z,46.36
2018-07-19T08:39:10.754Z,47.20
2018-07-19T08:41:38.502Z,47.49
2018-07-19T08:46:40.791Z,47.12
2018-07-19T08:49:08.508Z,47.72
2018-07-19T08:51:36.286Z,47.50
2018-07-19T08:54:03.956Z,47.31
2018-07-19T08:56:31.764Z,47.26
2018-07-19T08:58:59.422Z,45.48
2018-07-19T09:01:27.073Z,43.04
2018-07-19T09:03:54.844Z,42.47
2018-07-19T09:06:22.453Z,45.18
2018-07-19T09:08:50.114Z,43.36
2018-07-19T09:11:18.080Z,43.73
2018-07-19T09:13:46.348Z,43.05
2018-07-19T09:16:14.012Z,43.96
2018-07-19T09:18:41.707Z,44.37
2018-07-19T09:21:09.486Z,46.22
2018-07-19T09:23:37.271Z,44.69
2018-07-19T09:26:04.954Z,44.74
2018-07-19T09:28:32.622Z,44.97
2018-07-19T09:31:00.381Z,43.61
2018-07-19T09:33:28.087Z,43.70
2018-07-19T09:35:55.727Z,44.82
2018-07-19T09:38:23.488Z,44.84
2018-07-19T09:40:51.240Z,44.78
2018-07-19T09:43:18.988Z,42.92
2018-07-19T09:45:46.768Z,42.34
2018-07-19T09:48:14.450Z,41.68
2018-07-19T09:50:42.181Z,42.12
2018-07-19T09:53:09.870Z,40.66
2018-07-19T09:55:37.658Z,40.47
2018-07-19T09:58:05.673Z,43.03
2018-07-19T10:01:37.994Z,43.41
2018-07-19T10:04:06.159Z,43.03
2018-07-19T10:06:33.803Z,40.04
2018-07-19T10:09:01.473Z,39.19
2018-07-19T10:11:29.188Z,40.03
2018-07-19T10:13:56.868Z,41.76
2018-07-19T10:16:24.515Z,41.65
2018-07-19T10:18:52.199Z,39.56
2018-07-19T10:21:19.941Z,37.67
2018-07-19T10:23:47.600Z,38.33
2018-07-19T10:26:15.221Z,39.71
2018-07-19T10:28:43.099Z,39.77
2018-07-19T10:31:10.838Z,41.28
2018-07-19T10:33:38.514Z,41.39
2018-07-19T10:36:06.271Z,40.62
2018-07-19T10:38:33.909Z,40.60
2018-07-19T10:41:01.662Z,39.96
2018-07-19T10:43:29.375Z,39.74
2018-07-19T10:45:57.248Z,40.05
2018-07-19T10:48:24.890Z,39.30
2018-07-19T10:50:52.558Z,38.02
2018-07-19T10:53:20.150Z,39.56
2018-07-19T10:55:47.914Z,41.01
2018-07-19T10:58:15.638Z,42.56
2018-07-19T11:00:43.462Z,41.81
2018-07-19T11:03:11.122Z,40.63
2018-07-19T11:05:38.871Z,38.74
2018-07-19T11:08:06.539Z,37.47
2018-07-19T11:10:34.291Z,39.28
2018-07-19T11:13:02.065Z,38.09
2018-07-19T11:15:29.846Z,38.11
2018-07-19T11:17:57.465Z,38.28
2018-07-19T11:20:25.248Z,38.21
2018-07-19T11:22:52.962Z,37.51
2018-07-19T11:25:21.163Z,35.86
2018-07-19T11:27:48.839Z,35.71
2018-07-19T11:30:16.623Z,36.47
2018-07-19T11:32:44.395Z,39.12
2018-07-19T11:35:12.099Z,37.38
2018-07-19T11:37:39.802Z,36.70
2018-07-19T11:40:07.579Z,37.06
2018-07-19T11:42:35.303Z,36.72
2018-07-19T11:45:02.994Z,36.26
2018-07-19T11:47:30.756Z,35.42
2018-07-19T11:49:58.546Z,33.94
2018-07-19T11:52:26.295Z,35.58
2018-07-19T11:54:54.012Z,34.63
2018-07-19T11:57:21.913Z,34.36
2018-07-19T11:59:49.620Z,34.77
2018-07-19T12:02:17.268Z,33.80
2018-07-19T12:04:45.000Z,27.88
2018-07-19T12:07:12.707Z,28.83
2018-07-19T12:09:40.447Z,27.67
2018-07-19T12:12:08.262Z,32.29
2018-07-19T12:14:35.921Z,32.52
2018-07-19T12:17:03.667Z,28.79
2018-07-19T12:19:31.393Z,21.57
2018-07-19T12:21:59.311Z,20.09
2018-07-19T12:24:27.019Z,20.50
2018-07-19T12:26:54.740Z,21.01
2018-07-19T12:29:22.431Z,21.23
2018-07-19T12:31:50.149Z,22.06
2018-07-19T12:34:17.909Z,20.33
2018-07-19T12:36:45.675Z,22.17
2018-07-19T12:39:13.408Z,21.74
2018-07-19T12:41:41.590Z,21.40
2018-07-19T12:44:09.516Z,25.76
2018-07-19T12:46:37.597Z,26.88
2018-07-19T12:49:05.790Z,22.16
2018-07-19T12:51:33.647Z,19.57
2018-07-19T12:54:01.436Z,17.34
2018-07-19T12:56:29.171Z,19.84
2018-07-19T12:58:57.240Z,18.80
2018-07-19T13:01:24.840Z,15.36
2018-07-19T13:03:52.490Z,16.43
2018-07-19T13:06:20.153Z,19.78
2018-07-19T13:08:47.806Z,18.30
2018-07-19T13:11:15.487Z,18.42
2018-07-19T13:13:43.363Z,15.30
2018-07-19T13:16:11.746Z,13.61
2018-07-19T13:18:39.414Z,12.36
2018-07-19T13:21:07.214Z,12.34
2018-07-19T13:23:35.022Z,18.24
2018-07-19T13:26:02.857Z,17.09
2018-07-19T13:28:30.797Z,16.08
2018-07-19T13:30:58.479Z,19.07
2018-07-19T13:33:26.193Z,16.71
2018-07-19T13:35:53.909Z,18.91
2018-07-19T13:38:21.531Z,21.15
2018-07-19T13:40:49.821Z,17.08
2018-07-19T13:43:17.494Z,17.41
2018-07-19T13:45:45.261Z,18.64
2018-07-19T13:48:12.867Z,20.84
2018-07-19T13:50:40.716Z,24.29
2018-07-19T13:53:41.093Z,27.50
2018-07-19T13:56:09.190Z,28.60
2018-07-19T13:58:37.621Z,29.91
2018-07-19T14:01:05.382Z,27.48
2018-07-19T14:03:33.270Z,21.34
2018-07-19T14:06:01.404Z,18.97
2018-07-19T14:08:29.034Z,15.26
2018-07-19T14:10:56.810Z,15.52
2018-07-19T14:13:24.489Z,16.27
2018-07-19T14:15:53.105Z,14.30
2018-07-19T14:18:20.975Z,12.51
2018-07-19T14:20:49.129Z,11.51
2018-07-19T14:23:16.824Z,15.93
2018-07-19T14:25:44.490Z,19.59
2018-07-19T14:28:12.415Z,18.50
2018-07-19T14:30:40.403Z,15.11
2018-07-19T14:33:08.544Z,14.10
2018-07-19T14:35:36.289Z,12.86
2018-07-19T14:38:03.891Z,11.36
2018-07-19T14:40:31.516Z,10.56
2018-07-19T14:42:59.256Z,11.20
2018-07-19T14:45:26.901Z,11.94
2018-07-19T14:47:54.635Z,10.96
2018-07-19T14:50:22.497Z,11.95
2018-07-19T14:52:50.266Z,11.32
2018-07-19T14:55:17.984Z,12.65
2018-07-19T14:57:45.691Z,11.07
2018-07-19T15:00:13.439Z,11.24
2018-07-19T15:02:41.281Z,11.04
2018-07-19T15:05:09.010Z,10.27
2018-07-19T15:07:36.767Z,11.00
2018-07-19T15:10:04.958Z,10.31
2018-07-19T15:12:32.616Z,10.71
2018-07-19T15:15:00.286Z,10.35
2018-07-19T15:17:27.916Z,9.07
2018-07-19T15:19:55.667Z,9.56
2018-07-19T15:22:23.313Z,9.96
2018-07-19T15:24:51.039Z,9.23
2018-07-19T15:27:18.846Z,9.13
2018-07-19T15:29:46.549Z,10.95
2018-07-19T15:32:14.235Z,11.04
2018-07-19T15:34:41.893Z,12.05
2018-07-19T15:37:09.631Z,9.57
2018-07-19T15:39:37.228Z,9.01
2018-07-19T15:42:04.902Z,9.50
2018-07-19T15:44:32.544Z,8.48
2018-07-19T15:47:00.267Z,9.80
2018-07-19T15:49:27.986Z,9.72
2018-07-19T15:51:55.734Z,10.22
2018-07-19T15:54:23.478Z,8.99
2018-07-19T15:56:51.138Z,10.33
2018-07-19T15:59:18.944Z,10.50
2018-07-19T16:01:46.647Z,10.76
2018-07-19T16:04:14.305Z,13.12
2018-07-19T16:06:42.101Z,14.46
2018-07-19T16:09:11.290Z,13.84
2018-07-19T16:11:39.056Z,13.49
2018-07-19T16:14:06.908Z,11.86
2018-07-19T16:16:35.120Z,11.93
2018-07-19T16:19:02.775Z,11.32
2018-07-19T16:21:30.569Z,11.57
2018-07-19T16:23:58.249Z,11.76
2018-07-19T16:26:25.950Z,11.27
2018-07-19T16:28:53.548Z,11.25
2018-07-19T16:31:21.155Z,11.50
2018-07-19T16:33:48.822Z,11.00
2018-07-19T16:36:16.514Z,11.29
2018-07-19T16:38:44.170Z,11.44
2018-07-19T16:41:11.828Z,11.64
2018-07-19T16:43:39.441Z,11.18
2018-07-19T16:46:07.267Z,11.26
2018-07-19T16:48:34.949Z,11.80
2018-07-19T16:51:02.575Z,12.51
2018-07-19T16:53:30.295Z,13.51
2018-07-19T16:55:57.983Z,13.67
2018-07-19T16:58:25.708Z,13.17
2018-07-19T17:00:53.497Z,13.94
2018-07-19T17:03:21.194Z,13.60
2018-07-19T17:05:48.875Z,13.55
2018-07-19T17:08:16.519Z,13.39
2018-07-19T17:10:44.156Z,14.46
2018-07-19T17:13:11.865Z,15.08
2018-07-19T17:15:39.539Z,14.77
2018-07-19T17:18:07.262Z,14.87
2018-07-19T17:20:34.947Z,14.84
2018-07-19T17:23:02.748Z,15.21
2018-07-19T17:25:30.506Z,14.92
2018-07-19T17:27:58.178Z,14.86
2018-07-19T17:30:25.919Z,15.30
2018-07-19T17:32:53.523Z,15.02
2018-07-19T17:35:21.395Z,15.25
2018-07-19T17:37:49.055Z,15.38
2018-07-19T17:40:16.794Z,15.64
2018-07-19T17:42:44.495Z,16.14
2018-07-19T17:45:12.153Z,15.75
2018-07-19T17:47:39.893Z,16.20
2018-07-19T17:50:08.143Z,16.79
2018-07-19T17:52:35.893Z,17.07
2018-07-19T17:55:03.571Z,17.36
2018-07-19T17:57:31.334Z,17.86
2018-07-19T17:59:59.075Z,17.85
2018-07-19T18:02:26.843Z,18.61
2018-07-19T18:04:54.532Z,19.08
2018-07-19T18:07:22.228Z,20.48
2018-07-19T18:09:49.828Z,20.18
2018-07-19T18:12:17.549Z,21.56
2018-07-19T18:14:45.170Z,22.96
2018-07-19T18:17:12.839Z,22.72
2018-07-19T18:19:40.518Z,23.30
2018-07-19T18:22:08.258Z,24.47
2018-07-19T18:24:35.989Z,27.18
2018-07-19T18:27:03.642Z,29.24
2018-07-19T18:29:31.276Z,30.58
2018-07-19T18:31:58.908Z,31.21
2018-07-19T18:34:26.539Z,33.03
2018-07-19T18:36:54.129Z,33.61
2018-07-19T18:39:21.757Z,34.45
2018-07-19T18:41:49.517Z,35.16
2018-07-19T18:44:17.229Z,35.76
2018-07-19T18:46:44.889Z,36.90
2018-07-19T18:49:12.735Z,37.83
2018-07-19T18:51:40.613Z,37.89
2018-07-19T18:54:08.318Z,38.28
2018-07-19T18:56:35.965Z,38.27
2018-07-19T18:59:03.646Z,39.45
2018-07-19T19:01:31.438Z,38.25
2018-07-19T19:03:59.006Z,38.92
2018-07-19T19:06:26.729Z,39.48
2018-07-19T19:08:54.337Z,39.86
2018-07-19T19:11:22.059Z,40.16
2018-07-19T19:13:49.650Z,41.16
2018-07-19T19:16:17.401Z,40.95
2018-07-19T19:18:45.528Z,42.12
2018-07-19T19:21:13.812Z,42.13
2018-07-19T19:23:41.606Z,42.42
2018-07-19T19:26:09.270Z,42.29
2018-07-19T19:28:36.972Z,42.62
2018-07-19T19:31:04.784Z,43.36
2018-07-19T19:33:32.663Z,43.25
2018-07-19T19:36:00.473Z,43.76
2018-07-19T19:38:28.143Z,43.56
2018-07-19T19:40:56.310Z,44.57
2018-07-19T19:43:24.384Z,44.39
2018-07-19T19:45:52.017Z,44.58
2018-07-19T19:48:19.755Z,45.54
2018-07-19T19:50:47.405Z,45.60
2018-07-19T19:53:15.039Z,45.54
2018-07-19T19:55:42.697Z,46.40
2018-07-19T19:58:10.359Z,46.90
2018-07-19T20:00:38.157Z,47.03
2018-07-19T20:03:05.839Z,48.04
2018-07-19T20:05:33.734Z,47.46
2018-07-19T20:08:01.457Z,47.96
2018-07-19T20:10:29.186Z,48.05
2018-07-19T20:12:56.917Z,48.39
2018-07-19T20:15:24.686Z,48.58
2018-07-19T20:17:52.403Z,49.13
2018-07-19T20:20:20.173Z,50.07
2018-07-19T20:22:47.958Z,50.30
2018-07-19T20:25:15.640Z,50.63
2018-07-19T20:27:43.486Z,50.74
2018-07-19T20:30:11.210Z,51.14
2018-07-19T20:32:38.928Z,50.64
2018-07-19T20:35:06.785Z,50.31
2018-07-19T20:37:34.634Z,51.59
2018-07-19T20:40:02.362Z,51.85
2018-07-19T20:42:30.006Z,51.71
2018-07-19T20:44:57.628Z,51.64
2018-07-19T20:47:25.305Z,53.42
2018-07-19T20:49:53.024Z,53.69
2018-07-19T20:52:20.730Z,53.93
2018-07-19T20:54:48.539Z,53.73
2018-07-19T20:57:16.253Z,54.83
2018-07-19T20:59:43.933Z,55.80
2018-07-19T21:02:11.861Z,55.64
2018-07-19T21:04:39.553Z,55.14
2018-07-19T21:07:07.292Z,55.06
2018-07-19T21:09:34.934Z,55.31
2018-07-19T21:12:02.689Z,55.69
2018-07-19T21:14:30.395Z,56.03
2018-07-19T21:16:58.141Z,56.16
2018-07-19T21:19:25.742Z,57.10
2018-07-19T21:21:53.473Z,57.32
2018-07-19T21:24:21.250Z,57.65
2018-07-19T21:26:48.911Z,57.19
2018-07-19T21:29:16.520Z,58.10
2018-07-19T21:31:44.105Z,58.05
2018-07-19T21:34:11.776Z,57.28
2018-07-19T21:36:39.441Z,57.78
2018-07-19T21:39:09.105Z,57.57
2018-07-19T21:41:36.794Z,58.21
2018-07-19T21:44:04.456Z,58.13
2018-07-19T21:46:32.108Z,58.12
2018-07-19T21:49:00.212Z,58.30
2018-07-19T21:51:27.918Z,59.52
2018-07-19T21:53:55.590Z,58.86
2018-07-19T21:56:23.294Z,59.17
2018-07-19T21:58:51.062Z,60.12
2018-07-19T22:01:18.932Z,59.98
2018-07-19T22:03:47.592Z,59.92
2018-07-19T22:06:15.285Z,60.16
2018-07-19T22:08:43.255Z,59.85
2018-07-19T22:11:11.235Z,59.46
2018-07-19T22:13:38.890Z,59.74
2018-07-19T22:16:06.555Z,59.41
2018-07-19T22:18:34.248Z,59.39
2018-07-19T22:21:01.911Z,60.41
2018-07-19T22:26:03.985Z,59.85
2018-07-19T22:28:31.598Z,60.45
2018-07-19T22:30:59.316Z,60.42
2018-07-19T22:33:26.963Z,61.22
2018-07-19T22:35:54.962Z,60.18
2018-07-19T22:40:57.134Z,59.98
2018-07-19T22:43:24.760Z,60.19
2018-07-19T22:45:52.368Z,60.01
2018-07-19T22:48:20.070Z,59.96
2018-07-19T22:50:47.634Z,60.72
2018-07-19T22:53:15.240Z,61.14
2018-07-19T22:55:42.871Z,61.10
2018-07-19T22:58:10.518Z,61.58
2018-07-19T23:00:38.153Z,62.33
2018-07-19T23:03:05.827Z,62.84
2018-07-19T23:05:33.473Z,63.16
2018-07-19T23:08:01.146Z,62.95
2018-07-19T23:10:28.779Z,62.88
2018-07-19T23:12:56.377Z,62.94
2018-07-19T23:15:24.028Z,62.77
2018-07-19T23:17:51.727Z,63.40
2018-07-19T23:20:19.387Z,63.65
2018-07-19T23:22:54.300Z,63.54
2018-07-19T23:25:22.002Z,63.68
2018-07-19T23:27:49.844Z,63.65
2018-07-19T23:30:17.998Z,64.22
2018-07-19T23:32:45.740Z,64.04
2018-07-19T23:35:13.398Z,64.30
2018-07-19T23:37:42.266Z,64.30
2018-07-19T23:40:14.492Z,64.81
2018-07-19T23:42:45.471Z,64.01
2018-07-19T23:45:16.490Z,64.22
2018-07-19T23:47:44.850Z,64.80
2018-07-19T23:50:12.500Z,64.36
2018-07-19T23:52:40.118Z,64.35
2018-07-19T23:55:07.784Z,64.99
2018-07-19T23:57:35.469Z,65.96
